Thursday, April 17, 2014
12:58 UTC
  |  Log In   |  Register Free
Airport Search:

Coffeyville Municipal Airport
(KCFV)

Coffeyville Municipal Airport Diagram
No Airport Diagram Available

FAA data valid effective April 3, 2014 until May 29, 2014 (unless otherwise noted).

 
 
 
 
 
 
 
 
 
 
 
 
 
 

Current Aviation Weather for Coffeyville Municipal Airport (KCFV)

The most recent METAR observation for KCFV was updated at: 1152 UTC
METAR Summary (Translated METAR)
KCFV
171152Z AUTO 36007KT 10SM CLR 07/02 A3019 RMK AO2 SLP222 T00670022 10100 20050 53019 $
KPPF
(14.6 nm NE from KCFV)
171152Z AUTO 36007KT 10SM CLR 06/01 A3020 RMK AO2 SLP227 T00610006 10089 20033 53022 TSNO
TAF Summary (Translated TAF)
KBVO
(28.9 nm SW from KCFV)
171123Z 1712/1812 36003KT P6SM OVC250 FM171400 06006KT P6SM BKN150 FM172100 04006KT P6SM BKN100 FM180300 00000KT P6SM SCT250
  Airport Weather Conditions for KCFV

 Current Weather at CFV
44° F
Fair
North winds at 8.1 mph
CFV NOAA Radar

Pressure: 30.19 in
Humidity: 73%
Wind: North at 8.1 MPH (7 KT)
Dew Point: 36.0°F
Visibility: 10.00 mi


Airport Weather Forecast for KCFV

Translated METAR and TAF for KCFV
Translated METAR for KCFV (1258 UTC 17 April 2014)
found at http://aviationweather.gov/adds/metars/
 
METAR text: KCFV 171252Z AUTO 36010KT 9SM CLR 07/02 A3022 RMK AO2 SLP236 T00720017 $
Conditions at: KCFV (COFFEYVILLE , KS, US) observed 1252 UTC 17 April 2014
Temperature: 7.2°C (45°F)
Dewpoint: 1.7°C (35°F) [RH = 68%]
Pressure (altimeter): 30.22 inches Hg (1023.5 mb)
[Sea-level pressure: 1023.6 mb]
Winds: from the N (360 degrees) at 12 MPH (10 knots; 5.2 m/s)
Visibility: 9 miles (14 km)
Ceiling: at least 12,000 feet AGL
Clouds: sky clear below 12,000 feet AGL
Weather:
SOME DATA ABOVE MAY BE INACCURATE!!!
"$" is an indication the sensor requires maintenance
Translated TAF for KCFV

There is no translated TAF available for this airport

Find All Airport Services Find A Hotel Find A Rental Car Find A Golf Course Find A Restaurant $100 Hamburger



FBO's on the Field
FBO Company Facility Photos Services Transportation Aviation Fuel Prices: Prices include tax
Catering Weather Repair Courtesy Rental Type 100LL JetA JetA+ MOGAS 8087
 
Coffeyville Aircraft, Inc

This FBO has not yet been rated
FS:Phillips66
Last Updated: Apr-16
Login to update fuel prices
SS:
Contact Coffeyville Aircraft, IncMore FBO Information
 
Add another FBO Facility Photos Catering Weather Repair Courtesy Rental Type 100LL JetA JetA+ MOGAS 8087
Services Transportation Aviation Fuel Prices: Prices include tax


GlobalAir.com Airport Resource Center model-print
model-print
model-print
model-print